sensor_id;sensor_type;location;lat;lon;timestamp;temperature;humidity
53035;DHT22;38923;53.236;6.506;2022-08-02T00:01:28;14.40;99.90
53035;DHT22;38923;53.236;6.506;2022-08-02T00:03:53;14.40;99.90
53035;DHT22;38923;53.236;6.506;2022-08-02T00:06:19;14.40;99.90
53035;DHT22;38923;53.236;6.506;2022-08-02T00:08:45;14.40;99.90
53035;DHT22;38923;53.236;6.506;2022-08-02T00:11:10;14.40;99.90
53035;DHT22;38923;53.236;6.506;2022-08-02T00:13:36;14.50;99.90
53035;DHT22;38923;53.236;6.506;2022-08-02T00:16:02;14.50;99.90
53035;DHT22;38923;53.236;6.506;2022-08-02T00:18:28;14.40;99.90
53035;DHT22;38923;53.236;6.506;2022-08-02T00:20:54;14.50;99.90
53035;DHT22;38923;53.236;6.506;2022-08-02T00:23:20;14.50;99.90
53035;DHT22;38923;53.236;6.506;2022-08-02T00:25:46;14.50;99.90
53035;DHT22;38923;53.236;6.506;2022-08-02T00:28:11;14.50;99.90
53035;DHT22;38923;53.236;6.506;2022-08-02T00:30:37;14.40;99.90
53035;DHT22;38923;53.236;6.506;2022-08-02T00:33:04;14.40;99.90
53035;DHT22;38923;53.236;6.506;2022-08-02T00:35:31;14.40;99.90
53035;DHT22;38923;53.236;6.506;2022-08-02T00:37:56;14.40;99.90
53035;DHT22;38923;53.236;6.506;2022-08-02T00:40:23;14.40;99.90
53035;DHT22;38923;53.236;6.506;2022-08-02T00:43:06;14.40;99.90
53035;DHT22;38923;53.236;6.506;2022-08-02T00:45:33;14.40;99.90
53035;DHT22;38923;53.236;6.506;2022-08-02T00:47:59;14.40;99.90
53035;DHT22;38923;53.236;6.506;2022-08-02T00:50:25;14.40;99.90
53035;DHT22;38923;53.236;6.506;2022-08-02T00:52:51;14.30;99.90
53035;DHT22;38923;53.236;6.506;2022-08-02T00:55:18;14.30;99.90
53035;DHT22;38923;53.236;6.506;2022-08-02T00:57:44;14.30;99.90
53035;DHT22;38923;53.236;6.506;2022-08-02T01:00:10;14.20;99.90
53035;DHT22;38923;53.236;6.506;2022-08-02T01:02:36;14.20;99.90
53035;DHT22;38923;53.236;6.506;2022-08-02T01:05:01;14.20;99.90
53035;DHT22;38923;53.236;6.506;2022-08-02T01:07:27;14.20;99.90
53035;DHT22;38923;53.236;6.506;2022-08-02T01:09:53;14.10;99.90
53035;DHT22;38923;53.236;6.506;2022-08-02T01:12:18;14.20;99.90
53035;DHT22;38923;53.236;6.506;2022-08-02T01:14:49;14.10;99.90
53035;DHT22;38923;53.236;6.506;2022-08-02T01:19:50;14.10;99.90
53035;DHT22;38923;53.236;6.506;2022-08-02T01:30:43;14.00;99.90
53035;DHT22;38923;53.236;6.506;2022-08-02T01:33:13;14.00;99.90
53035;DHT22;38923;53.236;6.506;2022-08-02T01:35:44;14.00;99.90
53035;DHT22;38923;53.236;6.506;2022-08-02T01:38:18;14.00;99.90
53035;DHT22;38923;53.236;6.506;2022-08-02T01:40:46;14.00;99.90
53035;DHT22;38923;53.236;6.506;2022-08-02T01:43:14;14.00;99.90
53035;DHT22;38923;53.236;6.506;2022-08-02T01:45:42;14.00;99.90
53035;DHT22;38923;53.236;6.506;2022-08-02T01:48:09;14.10;99.90
53035;DHT22;38923;53.236;6.506;2022-08-02T01:50:37;14.10;99.90
53035;DHT22;38923;53.236;6.506;2022-08-02T01:53:06;14.10;99.90
53035;DHT22;38923;53.236;6.506;2022-08-02T01:55:42;14.10;99.90
53035;DHT22;38923;53.236;6.506;2022-08-02T01:58:09;14.00;99.90
53035;DHT22;38923;53.236;6.506;2022-08-02T02:00:39;14.00;99.90
53035;DHT22;38923;53.236;6.506;2022-08-02T02:03:09;14.00;99.90
53035;DHT22;38923;53.236;6.506;2022-08-02T02:05:37;14.00;99.90
53035;DHT22;38923;53.236;6.506;2022-08-02T02:08:06;14.00;99.90
53035;DHT22;38923;53.236;6.506;2022-08-02T02:10:34;14.00;99.90
53035;DHT22;38923;53.236;6.506;2022-08-02T02:13:08;14.00;99.90
53035;DHT22;38923;53.236;6.506;2022-08-02T02:15:43;14.00;99.90
53035;DHT22;38923;53.236;6.506;2022-08-02T02:18:16;14.00;99.90
53035;DHT22;38923;53.236;6.506;2022-08-02T02:20:43;14.00;99.90
53035;DHT22;38923;53.236;6.506;2022-08-02T02:23:10;14.00;99.90
53035;DHT22;38923;53.236;6.506;2022-08-02T02:25:37;14.00;99.90
53035;DHT22;38923;53.236;6.506;2022-08-02T02:28:12;14.00;99.90
53035;DHT22;38923;53.236;6.506;2022-08-02T02:30:38;14.00;99.90
53035;DHT22;38923;53.236;6.506;2022-08-02T02:33:07;14.00;99.90
53035;DHT22;38923;53.236;6.506;2022-08-02T02:35:35;14.00;99.90
53035;DHT22;38923;53.236;6.506;2022-08-02T02:38:03;14.00;99.90
53035;DHT22;38923;53.236;6.506;2022-08-02T02:40:31;14.00;99.90
53035;DHT22;38923;53.236;6.506;2022-08-02T02:42:58;14.00;99.90
53035;DHT22;38923;53.236;6.506;2022-08-02T02:45:26;14.00;99.90
53035;DHT22;38923;53.236;6.506;2022-08-02T02:47:54;14.00;99.90
53035;DHT22;38923;53.236;6.506;2022-08-02T02:50:21;14.00;99.90
53035;DHT22;38923;53.236;6.506;2022-08-02T02:52:49;14.10;99.90
53035;DHT22;38923;53.236;6.506;2022-08-02T02:55:16;14.10;99.90
53035;DHT22;38923;53.236;6.506;2022-08-02T02:57:43;14.00;99.90
53035;DHT22;38923;53.236;6.506;2022-08-02T03:00:11;14.00;99.90
53035;DHT22;38923;53.236;6.506;2022-08-02T03:02:38;14.00;99.90
53035;DHT22;38923;53.236;6.506;2022-08-02T03:05:06;14.00;99.90
53035;DHT22;38923;53.236;6.506;2022-08-02T03:07:32;14.00;99.90
53035;DHT22;38923;53.236;6.506;2022-08-02T03:09:59;14.00;99.90
53035;DHT22;38923;53.236;6.506;2022-08-02T03:12:25;14.00;99.90
53035;DHT22;38923;53.236;6.506;2022-08-02T03:14:52;14.00;99.90
53035;DHT22;38923;53.236;6.506;2022-08-02T03:17:18;13.90;99.90
53035;DHT22;38923;53.236;6.506;2022-08-02T03:19:44;14.00;99.90
53035;DHT22;38923;53.236;6.506;2022-08-02T03:22:10;13.90;99.90
53035;DHT22;38923;53.236;6.506;2022-08-02T03:24:36;13.90;99.90
53035;DHT22;38923;53.236;6.506;2022-08-02T03:27:02;13.90;99.90
53035;DHT22;38923;53.236;6.506;2022-08-02T03:29:28;13.90;99.90
53035;DHT22;38923;53.236;6.506;2022-08-02T03:31:54;13.90;99.90
53035;DHT22;38923;53.236;6.506;2022-08-02T03:34:20;13.90;99.90
53035;DHT22;38923;53.236;6.506;2022-08-02T03:36:49;13.90;99.90
53035;DHT22;38923;53.236;6.506;2022-08-02T03:39:17;14.00;99.90
53035;DHT22;38923;53.236;6.506;2022-08-02T03:41:44;14.00;99.90
53035;DHT22;38923;53.236;6.506;2022-08-02T03:44:11;13.90;99.90
53035;DHT22;38923;53.236;6.506;2022-08-02T03:46:38;14.00;99.90
53035;DHT22;38923;53.236;6.506;2022-08-02T03:49:06;13.90;99.90
53035;DHT22;38923;53.236;6.506;2022-08-02T03:51:36;13.90;99.90
53035;DHT22;38923;53.236;6.506;2022-08-02T03:54:03;13.90;99.90
53035;DHT22;38923;53.236;6.506;2022-08-02T03:56:29;13.90;99.90
53035;DHT22;38923;53.236;6.506;2022-08-02T03:59:24;13.90;99.90
53035;DHT22;38923;53.236;6.506;2022-08-02T04:01:50;14.00;99.90
53035;DHT22;38923;53.236;6.506;2022-08-02T04:04:15;14.00;99.90
53035;DHT22;38923;53.236;6.506;2022-08-02T04:06:41;14.00;99.90
53035;DHT22;38923;53.236;6.506;2022-08-02T04:09:08;14.00;99.90
53035;DHT22;38923;53.236;6.506;2022-08-02T04:11:33;14.00;99.90
53035;DHT22;38923;53.236;6.506;2022-08-02T04:14:06;14.00;99.90
53035;DHT22;38923;53.236;6.506;2022-08-02T04:17:03;14.00;99.90
53035;DHT22;38923;53.236;6.506;2022-08-02T04:19:33;14.00;99.90
53035;DHT22;38923;53.236;6.506;2022-08-02T04:22:02;14.00;99.90
53035;DHT22;38923;53.236;6.506;2022-08-02T04:24:40;14.00;99.90
53035;DHT22;38923;53.236;6.506;2022-08-02T04:27:09;14.00;99.90
53035;DHT22;38923;53.236;6.506;2022-08-02T04:29:35;14.00;99.90
53035;DHT22;38923;53.236;6.506;2022-08-02T04:32:04;14.00;99.90
53035;DHT22;38923;53.236;6.506;2022-08-02T04:34:30;14.00;99.90
53035;DHT22;38923;53.236;6.506;2022-08-02T04:36:56;14.00;99.90
53035;DHT22;38923;53.236;6.506;2022-08-02T04:39:23;14.10;99.90
53035;DHT22;38923;53.236;6.506;2022-08-02T04:41:48;14.10;99.90
53035;DHT22;38923;53.236;6.506;2022-08-02T04:44:14;14.00;99.90
53035;DHT22;38923;53.236;6.506;2022-08-02T04:46:42;14.10;99.90
53035;DHT22;38923;53.236;6.506;2022-08-02T04:49:08;14.10;99.90
53035;DHT22;38923;53.236;6.506;2022-08-02T04:51:35;14.10;99.90
53035;DHT22;38923;53.236;6.506;2022-08-02T04:54:03;14.10;99.90
53035;DHT22;38923;53.236;6.506;2022-08-02T04:56:28;14.10;99.90
53035;DHT22;38923;53.236;6.506;2022-08-02T04:58:54;14.10;99.90
53035;DHT22;38923;53.236;6.506;2022-08-02T05:01:20;14.20;99.90
53035;DHT22;38923;53.236;6.506;2022-08-02T05:03:45;14.20;99.90
53035;DHT22;38923;53.236;6.506;2022-08-02T05:06:11;14.20;99.90
53035;DHT22;38923;53.236;6.506;2022-08-02T05:08:37;14.20;99.90
53035;DHT22;38923;53.236;6.506;2022-08-02T05:11:03;14.30;99.90
53035;DHT22;38923;53.236;6.506;2022-08-02T05:13:28;14.30;99.90
53035;DHT22;38923;53.236;6.506;2022-08-02T05:15:54;14.30;99.90
53035;DHT22;38923;53.236;6.506;2022-08-02T05:18:20;14.40;99.90
53035;DHT22;38923;53.236;6.506;2022-08-02T05:20:46;14.50;99.90
53035;DHT22;38923;53.236;6.506;2022-08-02T05:23:11;14.50;99.90
53035;DHT22;38923;53.236;6.506;2022-08-02T05:25:37;14.50;99.90
53035;DHT22;38923;53.236;6.506;2022-08-02T05:28:03;14.50;99.90
53035;DHT22;38923;53.236;6.506;2022-08-02T05:30:29;14.60;99.90
53035;DHT22;38923;53.236;6.506;2022-08-02T05:32:55;14.60;99.90
53035;DHT22;38923;53.236;6.506;2022-08-02T05:35:22;14.70;99.90
53035;DHT22;38923;53.236;6.506;2022-08-02T05:37:50;14.70;99.90
53035;DHT22;38923;53.236;6.506;2022-08-02T05:40:16;14.80;99.90
53035;DHT22;38923;53.236;6.506;2022-08-02T05:42:43;14.80;99.90
53035;DHT22;38923;53.236;6.506;2022-08-02T05:45:10;14.80;99.90
53035;DHT22;38923;53.236;6.506;2022-08-02T05:47:36;14.80;99.90
53035;DHT22;38923;53.236;6.506;2022-08-02T05:50:03;14.80;99.90
53035;DHT22;38923;53.236;6.506;2022-08-02T05:55:46;14.80;99.90
53035;DHT22;38923;53.236;6.506;2022-08-02T05:58:20;14.80;99.90
53035;DHT22;38923;53.236;6.506;2022-08-02T06:00:49;14.90;99.90
53035;DHT22;38923;53.236;6.506;2022-08-02T06:03:43;14.90;99.90
53035;DHT22;38923;53.236;6.506;2022-08-02T06:06:13;15.00;99.90
53035;DHT22;38923;53.236;6.506;2022-08-02T06:08:44;15.00;99.90
53035;DHT22;38923;53.236;6.506;2022-08-02T06:11:13;15.00;99.90
53035;DHT22;38923;53.236;6.506;2022-08-02T06:13:43;15.10;99.90
53035;DHT22;38923;53.236;6.506;2022-08-02T06:16:10;15.20;99.90
53035;DHT22;38923;53.236;6.506;2022-08-02T06:21:04;15.30;99.90
53035;DHT22;38923;53.236;6.506;2022-08-02T06:23:31;15.40;99.90
53035;DHT22;38923;53.236;6.506;2022-08-02T06:25:58;15.40;99.90
53035;DHT22;38923;53.236;6.506;2022-08-02T06:28:24;15.60;99.90
53035;DHT22;38923;53.236;6.506;2022-08-02T06:30:51;15.60;99.90
53035;DHT22;38923;53.236;6.506;2022-08-02T06:33:17;15.70;99.90
53035;DHT22;38923;53.236;6.506;2022-08-02T06:38:24;15.80;99.90
53035;DHT22;38923;53.236;6.506;2022-08-02T06:41:03;15.90;99.90
53035;DHT22;38923;53.236;6.506;2022-08-02T06:43:31;16.00;99.90
53035;DHT22;38923;53.236;6.506;2022-08-02T06:45:58;16.00;99.90
53035;DHT22;38923;53.236;6.506;2022-08-02T06:48:24;16.10;99.90
53035;DHT22;38923;53.236;6.506;2022-08-02T06:50:50;16.10;99.90
53035;DHT22;38923;53.236;6.506;2022-08-02T06:53:15;16.20;99.90
53035;DHT22;38923;53.236;6.506;2022-08-02T06:55:41;16.30;99.90
53035;DHT22;38923;53.236;6.506;2022-08-02T06:58:07;16.30;99.90
53035;DHT22;38923;53.236;6.506;2022-08-02T07:00:33;16.40;99.90
53035;DHT22;38923;53.236;6.506;2022-08-02T07:02:58;16.40;99.90
53035;DHT22;38923;53.236;6.506;2022-08-02T07:05:25;16.50;99.90
53035;DHT22;38923;53.236;6.506;2022-08-02T07:07:50;16.60;99.90
53035;DHT22;38923;53.236;6.506;2022-08-02T07:10:16;16.70;99.90
53035;DHT22;38923;53.236;6.506;2022-08-02T07:12:42;16.80;99.90
53035;DHT22;38923;53.236;6.506;2022-08-02T07:15:08;16.80;99.90
53035;DHT22;38923;53.236;6.506;2022-08-02T07:17:35;16.90;99.90
53035;DHT22;38923;53.236;6.506;2022-08-02T07:20:01;17.00;99.90
53035;DHT22;38923;53.236;6.506;2022-08-02T07:22:27;17.00;99.90
53035;DHT22;38923;53.236;6.506;2022-08-02T07:24:58;17.00;99.90
53035;DHT22;38923;53.236;6.506;2022-08-02T07:27:24;17.10;99.90
53035;DHT22;38923;53.236;6.506;2022-08-02T07:29:50;17.10;99.90
53035;DHT22;38923;53.236;6.506;2022-08-02T07:32:18;17.20;99.90
53035;DHT22;38923;53.236;6.506;2022-08-02T07:34:44;17.30;99.90
53035;DHT22;38923;53.236;6.506;2022-08-02T07:37:10;17.30;99.90
53035;DHT22;38923;53.236;6.506;2022-08-02T07:39:36;17.40;99.90
53035;DHT22;38923;53.236;6.506;2022-08-02T07:42:02;17.40;99.90
53035;DHT22;38923;53.236;6.506;2022-08-02T07:44:27;17.50;99.90
53035;DHT22;38923;53.236;6.506;2022-08-02T07:47:02;17.50;99.90
53035;DHT22;38923;53.236;6.506;2022-08-02T07:49:29;17.60;99.90
53035;DHT22;38923;53.236;6.506;2022-08-02T07:51:55;17.70;99.90
53035;DHT22;38923;53.236;6.506;2022-08-02T07:54:21;17.80;99.90
53035;DHT22;38923;53.236;6.506;2022-08-02T07:56:47;17.80;99.90
53035;DHT22;38923;53.236;6.506;2022-08-02T07:59:13;17.90;99.90
53035;DHT22;38923;53.236;6.506;2022-08-02T08:01:39;18.00;99.90
53035;DHT22;38923;53.236;6.506;2022-08-02T08:04:05;18.10;99.90
53035;DHT22;38923;53.236;6.506;2022-08-02T08:06:30;18.10;99.90
53035;DHT22;38923;53.236;6.506;2022-08-02T08:08:57;18.20;99.90
53035;DHT22;38923;53.236;6.506;2022-08-02T08:11:23;18.30;99.90
53035;DHT22;38923;53.236;6.506;2022-08-02T08:13:49;18.40;99.90
53035;DHT22;38923;53.236;6.506;2022-08-02T08:16:14;18.40;99.90
53035;DHT22;38923;53.236;6.506;2022-08-02T08:18:40;18.50;99.90
53035;DHT22;38923;53.236;6.506;2022-08-02T08:21:06;18.60;99.90
53035;DHT22;38923;53.236;6.506;2022-08-02T08:23:32;18.60;99.90
53035;DHT22;38923;53.236;6.506;2022-08-02T08:25:57;18.70;99.90
53035;DHT22;38923;53.236;6.506;2022-08-02T08:28:23;18.80;99.90
53035;DHT22;38923;53.236;6.506;2022-08-02T08:30:49;18.80;99.90
53035;DHT22;38923;53.236;6.506;2022-08-02T08:33:15;18.90;99.90
53035;DHT22;38923;53.236;6.506;2022-08-02T08:35:41;18.90;99.90
53035;DHT22;38923;53.236;6.506;2022-08-02T08:38:06;18.80;99.90
53035;DHT22;38923;53.236;6.506;2022-08-02T08:40:33;19.10;99.90
53035;DHT22;38923;53.236;6.506;2022-08-02T08:42:58;19.20;99.90
53035;DHT22;38923;53.236;6.506;2022-08-02T08:45:24;19.20;99.90
53035;DHT22;38923;53.236;6.506;2022-08-02T08:48:05;19.30;99.90
53035;DHT22;38923;53.236;6.506;2022-08-02T08:50:34;19.40;99.90
53035;DHT22;38923;53.236;6.506;2022-08-02T08:53:03;19.40;99.90
53035;DHT22;38923;53.236;6.506;2022-08-02T08:55:30;19.50;99.90
53035;DHT22;38923;53.236;6.506;2022-08-02T08:57:58;19.50;99.90
53035;DHT22;38923;53.236;6.506;2022-08-02T09:00:25;19.60;99.90
53035;DHT22;38923;53.236;6.506;2022-08-02T09:02:51;19.60;99.90
53035;DHT22;38923;53.236;6.506;2022-08-02T09:05:17;19.70;99.90
53035;DHT22;38923;53.236;6.506;2022-08-02T09:07:48;19.80;99.90
53035;DHT22;38923;53.236;6.506;2022-08-02T09:10:35;19.80;99.90
53035;DHT22;38923;53.236;6.506;2022-08-02T09:13:21;19.90;99.90
53035;DHT22;38923;53.236;6.506;2022-08-02T09:15:58;20.00;99.90
53035;DHT22;38923;53.236;6.506;2022-08-02T09:18:36;20.10;99.90
53035;DHT22;38923;53.236;6.506;2022-08-02T09:21:03;20.10;99.90
53035;DHT22;38923;53.236;6.506;2022-08-02T09:23:35;20.20;99.90
53035;DHT22;38923;53.236;6.506;2022-08-02T09:26:04;20.30;99.90
53035;DHT22;38923;53.236;6.506;2022-08-02T09:28:33;20.40;99.90
53035;DHT22;38923;53.236;6.506;2022-08-02T09:31:16;20.50;99.90
53035;DHT22;38923;53.236;6.506;2022-08-02T09:33:44;20.60;99.90
53035;DHT22;38923;53.236;6.506;2022-08-02T09:36:15;20.60;99.90
53035;DHT22;38923;53.236;6.506;2022-08-02T09:38:52;20.70;99.90
53035;DHT22;38923;53.236;6.506;2022-08-02T09:41:23;20.80;99.90
53035;DHT22;38923;53.236;6.506;2022-08-02T09:43:49;20.90;99.90
53035;DHT22;38923;53.236;6.506;2022-08-02T09:46:18;21.00;99.90
53035;DHT22;38923;53.236;6.506;2022-08-02T09:48:59;21.00;99.90
53035;DHT22;38923;53.236;6.506;2022-08-02T09:51:30;21.10;99.90
53035;DHT22;38923;53.236;6.506;2022-08-02T09:54:01;21.10;99.90
53035;DHT22;38923;53.236;6.506;2022-08-02T09:56:42;21.10;99.90
53035;DHT22;38923;53.236;6.506;2022-08-02T09:59:09;21.10;99.90
53035;DHT22;38923;53.236;6.506;2022-08-02T10:01:35;21.20;99.90
53035;DHT22;38923;53.236;6.506;2022-08-02T10:04:04;21.20;99.90
53035;DHT22;38923;53.236;6.506;2022-08-02T10:06:31;21.30;99.90
53035;DHT22;38923;53.236;6.506;2022-08-02T10:08:57;21.40;99.90
53035;DHT22;38923;53.236;6.506;2022-08-02T10:11:25;21.40;99.90
53035;DHT22;38923;53.236;6.506;2022-08-02T10:13:53;21.50;99.90
53035;DHT22;38923;53.236;6.506;2022-08-02T10:16:21;21.60;99.90
53035;DHT22;38923;53.236;6.506;2022-08-02T10:18:51;21.60;99.90
53035;DHT22;38923;53.236;6.506;2022-08-02T10:21:25;21.60;99.90
53035;DHT22;38923;53.236;6.506;2022-08-02T10:24:03;21.60;99.90
53035;DHT22;38923;53.236;6.506;2022-08-02T10:26:30;21.70;99.90
53035;DHT22;38923;53.236;6.506;2022-08-02T10:28:56;21.80;99.90
53035;DHT22;38923;53.236;6.506;2022-08-02T10:31:26;21.90;99.90
53035;DHT22;38923;53.236;6.506;2022-08-02T10:33:53;22.00;99.90
53035;DHT22;38923;53.236;6.506;2022-08-02T10:36:21;22.00;99.90
53035;DHT22;38923;53.236;6.506;2022-08-02T10:38:48;22.00;99.90
53035;DHT22;38923;53.236;6.506;2022-08-02T10:41:14;22.10;99.90
53035;DHT22;38923;53.236;6.506;2022-08-02T10:44:00;22.10;99.90
53035;DHT22;38923;53.236;6.506;2022-08-02T10:46:31;22.20;99.90
53035;DHT22;38923;53.236;6.506;2022-08-02T10:51:55;22.30;99.90
53035;DHT22;38923;53.236;6.506;2022-08-02T10:54:31;22.40;99.90
53035;DHT22;38923;53.236;6.506;2022-08-02T10:56:58;22.50;99.90
53035;DHT22;38923;53.236;6.506;2022-08-02T10:59:43;22.60;99.90
53035;DHT22;38923;53.236;6.506;2022-08-02T11:02:09;22.70;99.90
53035;DHT22;38923;53.236;6.506;2022-08-02T11:07:08;22.80;99.90
53035;DHT22;38923;53.236;6.506;2022-08-02T11:09:34;22.70;99.90
53035;DHT22;38923;53.236;6.506;2022-08-02T11:12:08;22.70;99.90
53035;DHT22;38923;53.236;6.506;2022-08-02T11:14:36;22.70;99.90
53035;DHT22;38923;53.236;6.506;2022-08-02T11:19:30;22.80;99.90
53035;DHT22;38923;53.236;6.506;2022-08-02T11:22:06;22.80;99.90
53035;DHT22;38923;53.236;6.506;2022-08-02T11:24:38;22.80;99.90
53035;DHT22;38923;53.236;6.506;2022-08-02T11:27:08;22.80;99.90
53035;DHT22;38923;53.236;6.506;2022-08-02T11:29:42;22.80;99.90
53035;DHT22;38923;53.236;6.506;2022-08-02T11:32:19;22.80;99.90
53035;DHT22;38923;53.236;6.506;2022-08-02T11:34:49;22.80;99.90
53035;DHT22;38923;53.236;6.506;2022-08-02T11:37:32;22.90;99.90
53035;DHT22;38923;53.236;6.506;2022-08-02T11:40:00;22.90;99.90
53035;DHT22;38923;53.236;6.506;2022-08-02T11:42:33;23.00;99.90
53035;DHT22;38923;53.236;6.506;2022-08-02T11:44:59;23.10;99.90
53035;DHT22;38923;53.236;6.506;2022-08-02T11:47:25;23.10;99.90
53035;DHT22;38923;53.236;6.506;2022-08-02T11:49:50;23.10;99.90
53035;DHT22;38923;53.236;6.506;2022-08-02T11:52:16;23.10;99.90
53035;DHT22;38923;53.236;6.506;2022-08-02T11:54:42;23.10;99.90
53035;DHT22;38923;53.236;6.506;2022-08-02T11:57:19;23.10;99.90
53035;DHT22;38923;53.236;6.506;2022-08-02T11:59:50;23.20;99.90
53035;DHT22;38923;53.236;6.506;2022-08-02T12:02:18;23.30;99.90
53035;DHT22;38923;53.236;6.506;2022-08-02T12:04:54;23.30;99.90
53035;DHT22;38923;53.236;6.506;2022-08-02T12:07:40;23.30;99.90
53035;DHT22;38923;53.236;6.506;2022-08-02T12:10:10;23.30;99.90
53035;DHT22;38923;53.236;6.506;2022-08-02T12:12:50;23.20;99.90
53035;DHT22;38923;53.236;6.506;2022-08-02T12:15:35;23.20;99.90
53035;DHT22;38923;53.236;6.506;2022-08-02T12:18:29;23.20;99.90
53035;DHT22;38923;53.236;6.506;2022-08-02T12:21:25;23.10;99.90
53035;DHT22;38923;53.236;6.506;2022-08-02T12:23:51;23.10;99.90
53035;DHT22;38923;53.236;6.506;2022-08-02T12:26:17;23.10;99.90
53035;DHT22;38923;53.236;6.506;2022-08-02T12:28:43;23.10;99.90
53035;DHT22;38923;53.236;6.506;2022-08-02T12:31:11;23.10;99.90
53035;DHT22;38923;53.236;6.506;2022-08-02T12:33:48;23.10;99.90
53035;DHT22;38923;53.236;6.506;2022-08-02T12:36:19;23.00;99.90
53035;DHT22;38923;53.236;6.506;2022-08-02T12:39:12;23.00;99.90
53035;DHT22;38923;53.236;6.506;2022-08-02T12:41:41;23.10;99.90
53035;DHT22;38923;53.236;6.506;2022-08-02T12:44:15;23.00;99.90
53035;DHT22;38923;53.236;6.506;2022-08-02T12:46:41;23.00;99.90
53035;DHT22;38923;53.236;6.506;2022-08-02T12:49:15;22.90;99.90
53035;DHT22;38923;53.236;6.506;2022-08-02T12:51:41;22.90;99.90
53035;DHT22;38923;53.236;6.506;2022-08-02T12:54:16;22.90;99.90
53035;DHT22;38923;53.236;6.506;2022-08-02T12:56:43;22.90;99.90
53035;DHT22;38923;53.236;6.506;2022-08-02T12:59:09;22.80;99.90
53035;DHT22;38923;53.236;6.506;2022-08-02T13:01:35;22.80;99.90
53035;DHT22;38923;53.236;6.506;2022-08-02T13:04:01;22.80;99.90
53035;DHT22;38923;53.236;6.506;2022-08-02T13:06:27;22.80;99.90
53035;DHT22;38923;53.236;6.506;2022-08-02T13:08:53;22.80;99.90
53035;DHT22;38923;53.236;6.506;2022-08-02T13:11:20;22.80;99.90
53035;DHT22;38923;53.236;6.506;2022-08-02T13:13:46;22.90;99.90
53035;DHT22;38923;53.236;6.506;2022-08-02T13:16:13;22.90;99.90
53035;DHT22;38923;53.236;6.506;2022-08-02T13:18:39;22.80;99.90
53035;DHT22;38923;53.236;6.506;2022-08-02T13:21:05;22.80;99.90
53035;DHT22;38923;53.236;6.506;2022-08-02T13:23:32;22.80;99.90
53035;DHT22;38923;53.236;6.506;2022-08-02T13:25:58;22.90;99.90
53035;DHT22;38923;53.236;6.506;2022-08-02T13:28:24;22.90;99.90
53035;DHT22;38923;53.236;6.506;2022-08-02T13:30:50;22.90;99.90
53035;DHT22;38923;53.236;6.506;2022-08-02T13:33:16;23.00;99.90
53035;DHT22;38923;53.236;6.506;2022-08-02T13:35:44;23.00;99.90
53035;DHT22;38923;53.236;6.506;2022-08-02T13:38:09;23.00;99.90
53035;DHT22;38923;53.236;6.506;2022-08-02T13:40:36;23.00;99.90
53035;DHT22;38923;53.236;6.506;2022-08-02T13:43:25;23.00;99.90
53035;DHT22;38923;53.236;6.506;2022-08-02T13:45:50;23.00;99.90
53035;DHT22;38923;53.236;6.506;2022-08-02T13:48:16;23.00;99.90
53035;DHT22;38923;53.236;6.506;2022-08-02T13:50:42;23.10;99.90
53035;DHT22;38923;53.236;6.506;2022-08-02T13:53:08;23.10;99.90
53035;DHT22;38923;53.236;6.506;2022-08-02T13:55:34;23.30;99.90
53035;DHT22;38923;53.236;6.506;2022-08-02T13:58:00;23.30;99.90
53035;DHT22;38923;53.236;6.506;2022-08-02T14:00:26;23.40;99.90
53035;DHT22;38923;53.236;6.506;2022-08-02T14:02:52;23.40;99.90
53035;DHT22;38923;53.236;6.506;2022-08-02T14:05:18;23.30;99.90
53035;DHT22;38923;53.236;6.506;2022-08-02T14:07:43;23.20;99.90
53035;DHT22;38923;53.236;6.506;2022-08-02T14:10:09;23.20;99.90
53035;DHT22;38923;53.236;6.506;2022-08-02T14:12:35;23.10;99.90
53035;DHT22;38923;53.236;6.506;2022-08-02T14:15:00;23.10;99.90
53035;DHT22;38923;53.236;6.506;2022-08-02T14:17:26;23.10;99.90
53035;DHT22;38923;53.236;6.506;2022-08-02T14:19:52;23.10;99.90
53035;DHT22;38923;53.236;6.506;2022-08-02T14:22:18;23.20;99.90
53035;DHT22;38923;53.236;6.506;2022-08-02T14:24:43;23.20;99.90
53035;DHT22;38923;53.236;6.506;2022-08-02T14:27:09;23.20;99.90
53035;DHT22;38923;53.236;6.506;2022-08-02T14:29:35;23.20;99.90
53035;DHT22;38923;53.236;6.506;2022-08-02T14:32:01;23.20;99.90
53035;DHT22;38923;53.236;6.506;2022-08-02T14:34:27;23.20;99.90
53035;DHT22;38923;53.236;6.506;2022-08-02T14:36:55;23.20;99.90
53035;DHT22;38923;53.236;6.506;2022-08-02T14:39:21;23.20;99.90
53035;DHT22;38923;53.236;6.506;2022-08-02T14:41:47;23.20;99.90
53035;DHT22;38923;53.236;6.506;2022-08-02T14:44:13;23.20;99.90
53035;DHT22;38923;53.236;6.506;2022-08-02T14:46:40;23.30;99.90
53035;DHT22;38923;53.236;6.506;2022-08-02T14:49:08;23.30;99.90
53035;DHT22;38923;53.236;6.506;2022-08-02T14:51:36;23.30;99.90
53035;DHT22;38923;53.236;6.506;2022-08-02T14:54:04;23.30;99.90
53035;DHT22;38923;53.236;6.506;2022-08-02T14:56:30;23.30;99.90
53035;DHT22;38923;53.236;6.506;2022-08-02T14:58:56;23.30;99.90
53035;DHT22;38923;53.236;6.506;2022-08-02T15:01:22;23.30;99.90
53035;DHT22;38923;53.236;6.506;2022-08-02T15:03:48;23.40;99.90
53035;DHT22;38923;53.236;6.506;2022-08-02T15:06:14;23.40;99.90
53035;DHT22;38923;53.236;6.506;2022-08-02T15:08:40;23.50;99.90
53035;DHT22;38923;53.236;6.506;2022-08-02T15:11:06;23.60;99.90
53035;DHT22;38923;53.236;6.506;2022-08-02T15:13:32;23.70;99.90
53035;DHT22;38923;53.236;6.506;2022-08-02T15:15:57;23.70;99.90
53035;DHT22;38923;53.236;6.506;2022-08-02T15:18:23;23.80;99.90
53035;DHT22;38923;53.236;6.506;2022-08-02T15:20:49;23.80;99.90
53035;DHT22;38923;53.236;6.506;2022-08-02T15:23:15;23.80;99.90
53035;DHT22;38923;53.236;6.506;2022-08-02T15:25:41;23.80;99.90
53035;DHT22;38923;53.236;6.506;2022-08-02T15:28:08;23.90;99.90
53035;DHT22;38923;53.236;6.506;2022-08-02T15:30:34;24.00;99.90
53035;DHT22;38923;53.236;6.506;2022-08-02T15:33:02;24.10;99.90
53035;DHT22;38923;53.236;6.506;2022-08-02T15:35:28;24.20;99.90
53035;DHT22;38923;53.236;6.506;2022-08-02T15:37:53;24.30;99.90
53035;DHT22;38923;53.236;6.506;2022-08-02T15:40:20;24.30;99.90
53035;DHT22;38923;53.236;6.506;2022-08-02T15:42:45;24.40;99.90
53035;DHT22;38923;53.236;6.506;2022-08-02T15:45:12;24.40;99.90
53035;DHT22;38923;53.236;6.506;2022-08-02T15:47:38;24.50;99.90
53035;DHT22;38923;53.236;6.506;2022-08-02T15:50:04;24.50;99.90
53035;DHT22;38923;53.236;6.506;2022-08-02T15:52:29;24.60;99.90
53035;DHT22;38923;53.236;6.506;2022-08-02T15:54:55;24.60;99.90
53035;DHT22;38923;53.236;6.506;2022-08-02T15:57:21;24.70;99.90
53035;DHT22;38923;53.236;6.506;2022-08-02T15:59:47;24.70;99.90
53035;DHT22;38923;53.236;6.506;2022-08-02T16:02:13;24.80;99.90
53035;DHT22;38923;53.236;6.506;2022-08-02T16:04:40;24.80;99.90